aviador You're here:

LZPP Decoded Metar

PIESTANY in SLOVAKIA
Report Time2018-05-28 04:30:00
UTC Time2018-05-28 05:05:37
Flight Rules vfr VFR
Wind360° at 07 kt
W.Decomp.*RWY 01: 6.8 kt HW 1.6 kt LCW
Visibility9999 m
Phenomena:N/A
Clouds:N/A
Expected CloudBase > 800 ft AGL from Temp-Dew spread
CeilingNone
Temp18°C (ISA +4)
Dew Point16°C (88% RH)
AAT17.5°C
QNH1020 hPa
Density Alt1,010 ft
Elevation528 ft
Report Wrong Elevation
Raw Report
LZPP 280430Z 36007KT CAVOK 18/16 Q1020=

Extra information for LZPP:More info

Metar Taf Metar & Taf Last 4 Metars F.Rules Stats Wind Profile Meteogram Temp Stats Airport Information Weather charts Add Link Nearby VenuesMetar ALERT Operation Metar Decoded Social comments